createdAt,value
2019-03-22T00:00:36.941Z,20.10
2019-03-22T00:03:19.954Z,26.10
2019-03-22T00:05:55.949Z,21.30
2019-03-22T00:08:31.734Z,27.40
2019-03-22T00:11:14.016Z,24.55
2019-03-22T00:13:49.844Z,17.70
2019-03-22T00:16:32.683Z,25.30
2019-03-22T00:19:15.178Z,22.67
2019-03-22T00:21:51.629Z,25.57
2019-03-22T00:24:34.290Z,25.70
2019-03-22T00:27:16.289Z,24.27
2019-03-22T00:29:54.182Z,25.37
2019-03-22T00:32:37.626Z,26.57
2019-03-22T00:35:19.934Z,22.40
2019-03-22T00:37:56.301Z,22.07
2019-03-22T00:40:38.626Z,23.32
2019-03-22T00:43:20.891Z,24.70
2019-03-22T00:46:03.895Z,23.05
2019-03-22T00:48:46.210Z,19.95
2019-03-22T00:51:22.320Z,18.27
2019-03-22T00:54:04.890Z,25.75
2019-03-22T00:56:40.439Z,24.45
2019-03-22T00:59:22.518Z,20.55
2019-03-22T01:02:05.938Z,23.77
2019-03-22T01:04:47.987Z,21.12
2019-03-22T01:07:23.915Z,24.47
2019-03-22T01:09:59.369Z,19.40
2019-03-22T01:12:42.278Z,21.25
2019-03-22T01:15:24.141Z,22.67
2019-03-22T01:18:00.458Z,20.05
2019-03-22T01:20:43.410Z,23.90
2019-03-22T01:23:19.860Z,13.27
2019-03-22T01:26:02.851Z,22.58
2019-03-22T01:28:38.699Z,17.27
2019-03-22T01:31:21.009Z,18.17
2019-03-22T01:33:56.887Z,21.48
2019-03-22T01:36:39.293Z,23.12
2019-03-22T01:39:22.459Z,19.62
2019-03-22T01:42:05.206Z,21.35
2019-03-22T01:44:41.236Z,20.48
2019-03-22T01:47:23.980Z,16.42
2019-03-22T01:50:00.422Z,16.73
2019-03-22T01:52:42.514Z,18.35
2019-03-22T01:55:19.127Z,19.80
2019-03-22T01:58:01.739Z,17.60
2019-03-22T02:00:37.981Z,17.77
2019-03-22T02:03:21.056Z,17.65
2019-03-22T02:05:56.802Z,18.20
2019-03-22T02:08:39.135Z,16.10
2019-03-22T02:11:15.066Z,14.93
2019-03-22T02:13:57.654Z,17.00
2019-03-22T02:16:33.168Z,16.25
2019-03-22T02:19:15.508Z,15.03
2019-03-22T02:21:51.774Z,16.07
2019-03-22T02:24:34.748Z,15.18
2019-03-22T02:27:10.674Z,14.23
2019-03-22T02:29:53.796Z,14.38
2019-03-22T02:32:29.493Z,12.00
2019-03-22T02:35:05.686Z,11.55
2019-03-22T02:37:41.451Z,11.00
2019-03-22T02:40:26.753Z,11.18
2019-03-22T02:43:02.477Z,10.75
2019-03-22T02:45:45.476Z,10.00
2019-03-22T02:48:28.194Z,9.03
2019-03-22T02:51:03.803Z,9.93
2019-03-22T02:53:39.736Z,9.48
2019-03-22T02:56:22.437Z,9.03
2019-03-22T02:58:59.490Z,7.33
2019-03-22T03:01:42.690Z,9.38
2019-03-22T03:04:25.042Z,8.35
2019-03-22T03:07:07.984Z,7.37
2019-03-22T03:09:50.770Z,7.00
2019-03-22T03:12:32.873Z,6.87
2019-03-22T03:15:13.178Z,6.45
2019-03-22T03:17:49.222Z,6.05
2019-03-22T03:20:26.580Z,5.47
2019-03-22T03:23:09.041Z,6.22
2019-03-22T03:25:44.686Z,5.90
2019-03-22T03:28:36.462Z,5.65
2019-03-22T03:31:05.320Z,5.50
2019-03-22T03:33:47.898Z,5.40
2019-03-22T03:36:24.310Z,6.10
2019-03-22T03:39:07.101Z,4.78
2019-03-22T03:41:50.577Z,5.08
2019-03-22T03:44:34.120Z,5.00
2019-03-22T03:47:10.689Z,4.65
2019-03-22T03:49:53.741Z,5.30
2019-03-22T03:52:39.365Z,5.33
2019-03-22T03:55:27.483Z,4.45
2019-03-22T03:58:09.507Z,5.10
2019-03-22T04:00:45.427Z,4.87
2019-03-22T04:03:28.487Z,5.03
2019-03-22T04:06:03.978Z,4.47
2019-03-22T04:08:46.987Z,5.20
2019-03-22T04:11:23.056Z,5.35
2019-03-22T04:14:05.722Z,5.58
2019-03-22T04:16:41.824Z,5.67
2019-03-22T04:19:24.321Z,6.28
2019-03-22T04:22:00.925Z,5.62
2019-03-22T04:24:44.010Z,5.95
2019-03-22T04:27:19.584Z,6.37
2019-03-22T04:30:01.597Z,6.30
2019-03-22T04:32:37.224Z,7.00
2019-03-22T04:35:19.974Z,7.50
2019-03-22T04:38:03.281Z,8.15
2019-03-22T04:40:45.326Z,8.68
2019-03-22T04:43:28.593Z,8.63
2019-03-22T04:46:11.208Z,10.03
2019-03-22T04:48:55.621Z,10.43
2019-03-22T04:51:39.105Z,10.93
2019-03-22T04:54:16.080Z,9.80
2019-03-22T04:57:01.083Z,10.68
2019-03-22T04:59:38.747Z,11.12
2019-03-22T05:02:23.382Z,11.18
2019-03-22T05:05:06.844Z,10.70
2019-03-22T05:07:51.723Z,10.35
2019-03-22T05:10:29.679Z,10.40
2019-03-22T05:13:17.545Z,10.23
2019-03-22T05:15:55.022Z,9.85
2019-03-22T05:18:42.917Z,9.35
2019-03-22T05:21:20.298Z,10.18
2019-03-22T05:24:07.934Z,10.50
2019-03-22T05:26:53.340Z,9.90
2019-03-22T05:29:39.942Z,10.78
2019-03-22T05:32:25.071Z,9.90
2019-03-22T05:35:07.541Z,10.53
2019-03-22T05:37:50.247Z,10.80
2019-03-22T05:40:26.073Z,11.12
2019-03-22T05:43:08.233Z,11.08
2019-03-22T05:45:50.958Z,11.20
2019-03-22T05:48:34.038Z,11.48
2019-03-22T05:51:16.622Z,12.18
2019-03-22T05:53:52.215Z,12.07
2019-03-22T05:56:33.857Z,12.07
2019-03-22T05:59:09.306Z,12.23
2019-03-22T06:01:51.818Z,12.05
2019-03-22T06:04:28.146Z,12.85
2019-03-22T06:07:10.728Z,13.38
2019-03-22T06:09:53.798Z,13.20
2019-03-22T06:12:36.964Z,14.20
2019-03-22T06:15:25.967Z,14.00
2019-03-22T06:18:08.680Z,15.70
2019-03-22T06:20:50.900Z,13.78
2019-03-22T06:23:33.637Z,14.40
2019-03-22T06:26:16.562Z,14.85
2019-03-22T06:28:53.026Z,14.27
2019-03-22T06:31:35.807Z,14.10
2019-03-22T06:34:18.848Z,14.18
2019-03-22T06:36:55.086Z,14.25
2019-03-22T06:39:38.036Z,15.48
2019-03-22T06:42:20.128Z,14.40
2019-03-22T06:44:55.759Z,15.23
2019-03-22T06:47:37.899Z,15.15
2019-03-22T06:50:14.676Z,15.38
2019-03-22T06:52:56.242Z,14.85
2019-03-22T06:55:32.578Z,14.93
2019-03-22T06:58:14.651Z,15.25
2019-03-22T07:00:57.527Z,15.80
2019-03-22T07:03:33.277Z,13.72
2019-03-22T07:06:15.384Z,13.65
2019-03-22T07:08:51.033Z,15.00
2019-03-22T07:11:33.361Z,14.47
2019-03-22T07:14:22.876Z,15.38
2019-03-22T07:17:05.901Z,13.90
2019-03-22T07:19:42.327Z,15.25
2019-03-22T07:22:25.590Z,16.12
2019-03-22T07:25:08.650Z,14.68
2019-03-22T07:27:51.478Z,13.80
2019-03-22T07:30:36.375Z,13.62
2019-03-22T07:33:25.438Z,14.13
2019-03-22T07:36:01.184Z,13.08
2019-03-22T07:38:43.991Z,14.55
2019-03-22T07:41:20.023Z,14.43
2019-03-22T07:44:02.745Z,13.75
2019-03-22T07:46:51.675Z,15.13
2019-03-22T07:49:27.869Z,13.80
2019-03-22T07:52:10.929Z,13.72
2019-03-22T07:54:47.385Z,13.98
2019-03-22T07:57:29.910Z,13.88
2019-03-22T08:00:30.684Z,14.38
2019-03-22T08:03:01.462Z,13.58
2019-03-22T08:05:37.664Z,13.08
2019-03-22T08:08:20.281Z,13.65
2019-03-22T08:10:55.860Z,14.50
2019-03-22T08:13:38.520Z,14.80
2019-03-22T08:16:20.753Z,13.98
2019-03-22T08:18:57.366Z,13.40
2019-03-22T08:21:39.389Z,14.20
2019-03-22T08:24:21.659Z,14.20
2019-03-22T08:27:03.808Z,12.88
2019-03-22T08:29:40.101Z,13.43
2019-03-22T08:32:23.416Z,12.65
2019-03-22T08:34:59.760Z,11.55
2019-03-22T08:37:52.110Z,12.35
2019-03-22T08:43:01.286Z,11.28
2019-03-22T08:45:37.600Z,11.50
2019-03-22T08:48:20.220Z,11.50
2019-03-22T08:50:56.757Z,11.63
2019-03-22T08:53:39.282Z,11.95
2019-03-22T08:56:21.535Z,12.18
2019-03-22T08:58:57.162Z,10.60
2019-03-22T09:01:39.126Z,10.35
2019-03-22T09:04:21.635Z,9.60
2019-03-22T09:07:04.843Z,9.95
2019-03-22T09:09:47.631Z,10.65
2019-03-22T09:12:26.785Z,11.35
2019-03-22T09:15:08.269Z,10.63
2019-03-22T09:17:50.348Z,10.68
2019-03-22T09:20:27.041Z,10.23
2019-03-22T09:23:16.858Z,10.95
2019-03-22T09:25:53.075Z,10.55
2019-03-22T09:28:35.177Z,10.75
2019-03-22T09:31:11.504Z,10.50
2019-03-22T09:34:01.975Z,10.18
2019-03-22T09:36:44.478Z,9.73
2019-03-22T09:39:20.079Z,9.95
2019-03-22T09:42:02.739Z,9.70
2019-03-22T09:44:46.348Z,9.45
2019-03-22T09:47:22.981Z,9.00
2019-03-22T09:49:59.346Z,9.50
2019-03-22T09:52:41.017Z,11.85
2019-03-22T09:55:17.739Z,10.20
2019-03-22T09:58:00.197Z,10.32
2019-03-22T10:00:38.793Z,9.83
2019-03-22T10:03:21.321Z,11.73
2019-03-22T10:05:57.855Z,10.93
2019-03-22T10:08:39.723Z,10.95
2019-03-22T10:11:16.098Z,13.13
2019-03-22T10:13:58.768Z,14.33
2019-03-22T10:16:47.955Z,13.00
2019-03-22T10:19:30.500Z,13.13
2019-03-22T10:22:06.222Z,12.20
2019-03-22T10:24:49.004Z,11.12
2019-03-22T10:27:25.554Z,11.90
2019-03-22T10:30:08.416Z,10.40
2019-03-22T10:32:44.788Z,9.57
2019-03-22T10:35:27.259Z,8.05
2019-03-22T10:38:04.725Z,7.12
2019-03-22T10:40:41.057Z,6.80
2019-03-22T10:43:23.548Z,7.65
2019-03-22T10:46:07.934Z,7.33
2019-03-22T10:48:50.127Z,6.35
2019-03-22T10:51:26.055Z,6.33
2019-03-22T10:54:01.851Z,6.37
2019-03-22T10:56:44.372Z,6.03
2019-03-22T10:59:20.226Z,5.70
2019-03-22T11:02:04.024Z,5.65
2019-03-22T11:04:53.921Z,5.42
2019-03-22T11:07:36.094Z,5.55
2019-03-22T11:10:19.168Z,5.97
2019-03-22T11:13:01.158Z,5.53
2019-03-22T11:18:43.309Z,4.62
2019-03-22T11:24:20.282Z,4.85
2019-03-22T11:27:02.613Z,4.33
2019-03-22T11:29:51.440Z,4.60
2019-03-22T11:32:34.022Z,4.17
2019-03-22T11:35:18.338Z,4.17
2019-03-22T11:38:00.385Z,3.98
2019-03-22T11:40:36.842Z,4.60
2019-03-22T11:43:19.985Z,4.95
2019-03-22T11:45:56.152Z,5.00
2019-03-22T11:48:39.084Z,4.97
2019-03-22T11:51:15.580Z,4.63
2019-03-22T11:53:57.210Z,5.03
2019-03-22T11:56:40.464Z,5.78
2019-03-22T11:59:23.025Z,4.72
2019-03-22T12:01:59.351Z,4.67
2019-03-22T12:04:41.693Z,4.42
2019-03-22T12:07:23.691Z,4.53
2019-03-22T12:10:12.710Z,5.08
2019-03-22T12:12:48.948Z,4.90
2019-03-22T12:15:36.723Z,4.80
2019-03-22T12:18:19.058Z,4.75
2019-03-22T12:20:56.613Z,5.47
2019-03-22T12:23:39.494Z,4.70
2019-03-22T12:26:22.077Z,4.33
2019-03-22T12:28:58.212Z,4.08
2019-03-22T12:31:34.047Z,3.70
2019-03-22T12:34:17.044Z,3.85
2019-03-22T12:36:59.810Z,4.43
2019-03-22T12:39:36.199Z,4.33
2019-03-22T12:42:18.527Z,4.62
2019-03-22T12:44:54.381Z,4.00
2019-03-22T12:47:36.941Z,4.25
2019-03-22T12:50:15.257Z,4.08
2019-03-22T12:52:58.521Z,4.17
2019-03-22T12:55:41.602Z,3.77
2019-03-22T12:58:17.968Z,4.15
2019-03-22T13:01:00.449Z,5.95
2019-03-22T13:03:43.025Z,6.03
2019-03-22T13:06:25.519Z,4.87
2019-03-22T13:09:14.245Z,4.95
2019-03-22T13:11:56.728Z,5.50
2019-03-22T13:14:32.510Z,4.67
2019-03-22T13:17:15.194Z,12.82
2019-03-22T13:19:51.637Z,10.50
2019-03-22T13:22:34.377Z,4.78
2019-03-22T13:25:10.807Z,4.28
2019-03-22T13:27:53.630Z,4.28
2019-03-22T13:30:43.231Z,3.85
2019-03-22T13:33:26.141Z,3.70
2019-03-22T13:36:08.652Z,4.27
2019-03-22T13:38:50.524Z,5.10
2019-03-22T13:41:32.853Z,4.70
2019-03-22T13:44:21.466Z,3.90
2019-03-22T13:46:56.935Z,3.60
2019-03-22T13:49:39.721Z,4.10
2019-03-22T13:52:29.479Z,3.40
2019-03-22T13:55:13.843Z,3.77
2019-03-22T13:57:49.588Z,3.62
2019-03-22T14:00:31.928Z,3.20
2019-03-22T14:03:14.803Z,3.35
2019-03-22T14:06:03.808Z,3.40
2019-03-22T14:08:39.297Z,3.35
2019-03-22T14:11:22.501Z,3.37
2019-03-22T14:13:59.014Z,3.22
2019-03-22T14:16:42.034Z,2.77
2019-03-22T14:19:24.758Z,2.75
2019-03-22T14:22:07.446Z,2.50
2019-03-22T14:24:43.668Z,3.05
2019-03-22T14:27:25.941Z,2.70
2019-03-22T14:30:01.839Z,2.98
2019-03-22T14:32:38.018Z,5.70
2019-03-22T14:35:15.191Z,2.95
2019-03-22T14:37:57.439Z,2.75
2019-03-22T14:40:33.542Z,2.70
2019-03-22T14:43:16.859Z,3.02
2019-03-22T14:46:00.040Z,2.98
2019-03-22T14:48:42.878Z,2.58
2019-03-22T14:51:18.787Z,2.42
2019-03-22T14:54:00.803Z,2.60
2019-03-22T14:56:36.419Z,2.87
2019-03-22T14:59:19.622Z,2.87
2019-03-22T15:01:55.749Z,2.58
2019-03-22T15:04:37.832Z,2.95
2019-03-22T15:07:19.350Z,2.98
2019-03-22T15:09:57.627Z,3.00
2019-03-22T15:12:33.818Z,2.92
2019-03-22T15:15:37.617Z,2.72
2019-03-22T15:18:18.363Z,3.10
2019-03-22T15:21:17.081Z,3.02
2019-03-22T15:24:10.008Z,3.15
2019-03-22T15:26:57.553Z,2.90
2019-03-22T15:29:47.460Z,2.40
2019-03-22T15:32:37.599Z,2.33
2019-03-22T15:35:27.914Z,2.35
2019-03-22T15:38:22.570Z,2.65
2019-03-22T15:41:05.571Z,2.60
2019-03-22T15:43:43.412Z,2.43
2019-03-22T15:46:27.038Z,2.72
2019-03-22T15:49:02.872Z,3.20
2019-03-22T15:51:46.122Z,3.35
2019-03-22T15:54:21.965Z,3.60
2019-03-22T15:57:03.994Z,3.40
2019-03-22T15:59:39.952Z,3.30
2019-03-22T16:02:22.750Z,3.60
2019-03-22T16:04:58.708Z,3.72
2019-03-22T16:07:41.493Z,3.75
2019-03-22T16:10:18.806Z,4.53
2019-03-22T16:12:54.853Z,6.70
2019-03-22T16:15:37.777Z,5.25
2019-03-22T16:18:20.451Z,4.83
2019-03-22T16:21:10.635Z,4.90
2019-03-22T16:23:53.723Z,3.52
2019-03-22T16:26:36.633Z,3.27
2019-03-22T16:29:19.584Z,3.97
2019-03-22T16:32:02.704Z,3.93
2019-03-22T16:34:45.212Z,4.42
2019-03-22T16:37:21.008Z,3.62
2019-03-22T16:39:56.591Z,3.75
2019-03-22T16:42:39.715Z,4.28
2019-03-22T16:45:50.844Z,6.10
2019-03-22T16:48:40.286Z,7.15
2019-03-22T16:51:16.152Z,6.17
2019-03-22T16:53:58.624Z,6.25
2019-03-22T16:56:41.682Z,8.78
2019-03-22T16:59:17.642Z,8.88
2019-03-22T17:02:00.695Z,7.97
2019-03-22T17:04:37.090Z,9.73
2019-03-22T17:07:20.440Z,13.40
2019-03-22T17:09:56.512Z,27.10
2019-03-22T17:12:39.457Z,18.30
2019-03-22T17:15:23.048Z,13.67
2019-03-22T17:17:58.694Z,11.85
2019-03-22T17:20:41.043Z,10.78
2019-03-22T17:23:17.132Z,10.80
2019-03-22T17:25:59.682Z,22.07
2019-03-22T17:28:42.835Z,46.45
2019-03-22T17:31:25.274Z,38.50
2019-03-22T17:34:01.810Z,36.40
2019-03-22T17:36:38.002Z,43.90
2019-03-22T17:39:21.365Z,39.20
2019-03-22T17:41:57.099Z,21.95
2019-03-22T17:44:39.466Z,35.78
2019-03-22T17:47:22.553Z,59.03
2019-03-22T17:49:59.013Z,74.47
2019-03-22T17:52:34.971Z,57.35
2019-03-22T17:55:20.332Z,55.43
2019-03-22T17:57:56.696Z,46.15
2019-03-22T18:00:38.989Z,48.45
2019-03-22T18:03:21.036Z,28.85
2019-03-22T18:05:57.634Z,43.75
2019-03-22T18:08:40.003Z,76.20
2019-03-22T18:11:29.133Z,89.30
2019-03-22T18:14:18.859Z,66.65
2019-03-22T18:17:01.431Z,57.43
2019-03-22T18:19:37.858Z,36.55
2019-03-22T18:22:20.524Z,30.50
2019-03-22T18:25:03.748Z,32.90
2019-03-22T18:27:46.436Z,26.50
2019-03-22T18:30:24.236Z,26.77
2019-03-22T18:33:06.974Z,23.32
2019-03-22T18:35:42.501Z,21.97
2019-03-22T18:38:24.347Z,28.20
2019-03-22T18:41:07.208Z,35.90
2019-03-22T18:43:49.804Z,25.63
2019-03-22T18:46:32.772Z,20.20
2019-03-22T18:49:22.190Z,21.55
2019-03-22T18:51:58.364Z,12.60
2019-03-22T18:54:40.952Z,11.75
2019-03-22T18:57:16.920Z,11.75
2019-03-22T19:00:00.061Z,13.22
2019-03-22T19:02:48.848Z,16.48
2019-03-22T19:05:31.532Z,19.25
2019-03-22T19:08:07.990Z,19.87
2019-03-22T19:10:44.414Z,22.10
2019-03-22T19:13:30.974Z,22.60
2019-03-22T19:16:04.448Z,21.75
2019-03-22T19:18:46.601Z,20.80
2019-03-22T19:21:29.726Z,19.73
2019-03-22T19:24:14.355Z,21.65
2019-03-22T19:26:50.532Z,20.20
2019-03-22T19:29:33.083Z,22.27
2019-03-22T19:32:13.321Z,18.92
2019-03-22T19:34:54.697Z,19.17
2019-03-22T19:37:30.814Z,16.52
2019-03-22T19:40:17.051Z,16.10
2019-03-22T19:42:59.750Z,16.12
2019-03-22T19:45:45.447Z,15.32
2019-03-22T19:48:21.799Z,14.03
2019-03-22T19:50:57.525Z,12.28
2019-03-22T19:53:39.770Z,11.53
2019-03-22T19:56:23.259Z,11.85
2019-03-22T19:59:06.373Z,11.57
2019-03-22T20:01:42.645Z,12.33
2019-03-22T20:04:24.752Z,11.70
2019-03-22T20:07:00.365Z,12.35
2019-03-22T20:09:43.449Z,12.60
2019-03-22T20:12:32.545Z,12.47
2019-03-22T20:15:16.610Z,12.50
2019-03-22T20:17:52.842Z,12.65
2019-03-22T20:20:36.222Z,13.18
2019-03-22T20:23:11.991Z,12.07
2019-03-22T20:25:54.610Z,12.33
2019-03-22T20:28:30.917Z,12.98
2019-03-22T20:31:13.851Z,11.78
2019-03-22T20:33:56.693Z,15.03
2019-03-22T20:36:39.494Z,14.97
2019-03-22T20:39:22.096Z,14.50
2019-03-22T20:42:05.323Z,13.53
2019-03-22T20:44:41.150Z,13.40
2019-03-22T20:47:24.092Z,14.55
2019-03-22T20:50:07.275Z,11.90
2019-03-22T20:52:50.334Z,14.75
2019-03-22T20:55:26.222Z,16.07
2019-03-22T20:58:09.019Z,15.93
2019-03-22T21:00:45.375Z,17.50
2019-03-22T21:03:28.160Z,16.25
2019-03-22T21:06:04.719Z,11.90
2019-03-22T21:08:47.316Z,15.85
2019-03-22T21:11:29.490Z,16.42
2019-03-22T21:14:12.401Z,16.32
2019-03-22T21:16:54.491Z,16.40
2019-03-22T21:19:36.280Z,16.97
2019-03-22T21:22:18.497Z,15.28
2019-03-22T21:25:00.427Z,18.25
2019-03-22T21:27:36.874Z,18.80
2019-03-22T21:30:22.575Z,21.12
2019-03-22T21:33:04.750Z,19.73
2019-03-22T21:35:40.505Z,18.95
2019-03-22T21:38:23.423Z,20.60
2019-03-22T21:41:06.994Z,25.43
2019-03-22T21:43:43.422Z,23.85
2019-03-22T21:46:19.381Z,22.80
2019-03-22T21:49:02.665Z,21.90
2019-03-22T21:51:38.531Z,22.17
2019-03-22T21:54:20.754Z,22.10
2019-03-22T21:57:10.651Z,22.62
2019-03-22T21:59:46.557Z,24.92
2019-03-22T22:02:28.790Z,22.80
2019-03-22T22:05:12.658Z,22.65
2019-03-22T22:07:48.537Z,22.75
2019-03-22T22:10:31.273Z,21.82
2019-03-22T22:13:07.321Z,20.90
2019-03-22T22:15:49.904Z,21.15
2019-03-22T22:18:25.583Z,21.10
2019-03-22T22:21:08.597Z,20.82
2019-03-22T22:23:44.430Z,19.07
2019-03-22T22:26:27.190Z,19.85
2019-03-22T22:29:02.622Z,23.40
2019-03-22T22:31:44.901Z,23.73
2019-03-22T22:34:27.361Z,20.88
2019-03-22T22:37:03.008Z,20.97
2019-03-22T22:39:45.946Z,20.82
2019-03-22T22:42:28.362Z,26.17
2019-03-22T22:45:10.676Z,30.17
2019-03-22T22:47:47.443Z,30.17
2019-03-22T22:50:30.409Z,30.82
2019-03-22T22:53:06.797Z,28.75
2019-03-22T22:55:49.849Z,25.82
2019-03-22T22:58:32.944Z,23.77
2019-03-22T23:01:08.796Z,25.17
2019-03-22T23:03:44.610Z,20.70
2019-03-22T23:06:27.501Z,16.02
2019-03-22T23:09:05.426Z,14.40
2019-03-22T23:11:47.599Z,14.35
2019-03-22T23:14:29.811Z,14.05
2019-03-22T23:17:05.531Z,14.15
2019-03-22T23:19:48.940Z,14.20
2019-03-22T23:22:31.840Z,15.10
2019-03-22T23:25:21.962Z,14.53
2019-03-22T23:28:04.193Z,14.07
2019-03-22T23:30:46.715Z,14.90
2019-03-22T23:33:29.614Z,14.70
2019-03-22T23:36:20.189Z,17.87
2019-03-22T23:38:56.514Z,17.20
2019-03-22T23:41:32.476Z,17.07
2019-03-22T23:44:14.471Z,17.48
2019-03-22T23:46:50.494Z,17.40
2019-03-22T23:49:33.782Z,17.80
2019-03-22T23:52:09.831Z,17.65
2019-03-22T23:54:52.320Z,16.75
2019-03-22T23:57:35.085Z,15.93
